createdAt,value
2018-04-25T00:02:25.281Z,13.41
2018-04-25T00:04:51.172Z,13.44
2018-04-25T00:07:17.083Z,13.47
2018-04-25T00:09:43.053Z,13.32
2018-04-25T00:12:08.905Z,13.10
2018-04-25T00:14:34.854Z,12.93
2018-04-25T00:17:00.727Z,12.82
2018-04-25T00:19:26.627Z,12.86
2018-04-25T00:21:52.531Z,12.95
2018-04-25T00:24:18.495Z,12.94
2018-04-25T00:26:44.339Z,13.03
2018-04-25T00:29:10.252Z,12.95
2018-04-25T00:31:36.172Z,12.68
2018-04-25T00:34:02.068Z,12.62
2018-04-25T00:36:27.944Z,12.39
2018-04-25T00:38:53.839Z,12.43
2018-04-25T00:41:19.751Z,12.56
2018-04-25T00:43:45.663Z,12.69
2018-04-25T00:46:11.606Z,12.72
2018-04-25T00:48:37.531Z,12.67
2018-04-25T00:51:03.444Z,12.61
2018-04-25T00:53:29.350Z,12.65
2018-04-25T00:55:55.264Z,12.67
2018-04-25T00:58:21.191Z,12.72
2018-04-25T01:00:48.209Z,12.77
2018-04-25T01:03:14.134Z,12.82
2018-04-25T01:05:46.883Z,12.90
2018-04-25T01:08:12.795Z,12.98
2018-04-25T01:10:38.772Z,13.12
2018-04-25T01:13:04.721Z,13.21
2018-04-25T01:15:32.163Z,13.25
2018-04-25T01:17:58.108Z,13.33
2018-04-25T01:20:27.898Z,13.28
2018-04-25T01:22:53.803Z,13.28
2018-04-25T01:25:25.785Z,13.27
2018-04-25T01:27:52.532Z,13.21
2018-04-25T01:30:18.464Z,13.21
2018-04-25T01:32:44.374Z,13.22
2018-04-25T01:38:04.372Z,13.07
2018-04-25T01:40:30.290Z,13.13
2018-04-25T01:43:12.031Z,13.11
2018-04-25T01:48:12.642Z,13.04
2018-04-25T01:50:38.571Z,13.06
2018-04-25T01:53:16.761Z,13.09
2018-04-25T01:55:56.857Z,13.12
2018-04-25T01:58:35.311Z,13.11
2018-04-25T02:01:13.582Z,13.14
2018-04-25T02:03:53.930Z,13.16
2018-04-25T02:06:19.813Z,13.24
2018-04-25T02:08:45.692Z,13.23
2018-04-25T02:11:11.612Z,13.22
2018-04-25T02:13:37.511Z,13.24
2018-04-25T02:16:03.409Z,13.24
2018-04-25T02:18:36.191Z,13.34
2018-04-25T02:21:02.124Z,13.37
2018-04-25T02:23:28.037Z,13.36
2018-04-25T02:25:53.946Z,13.35
2018-04-25T02:28:19.850Z,13.35
2018-04-25T02:30:45.741Z,13.29
2018-04-25T02:33:11.631Z,13.19
2018-04-25T02:35:37.551Z,13.20
2018-04-25T02:38:03.431Z,13.12
2018-04-25T02:40:29.302Z,13.07
2018-04-25T02:42:55.252Z,13.13
2018-04-25T02:45:21.149Z,13.16
2018-04-25T02:47:47.016Z,13.18
2018-04-25T02:50:12.925Z,13.20
2018-04-25T02:52:38.823Z,13.22
2018-04-25T02:55:04.751Z,13.20
2018-04-25T02:57:30.657Z,13.21
2018-04-25T02:59:56.538Z,13.14
2018-04-25T03:02:22.489Z,13.12
2018-04-25T03:04:48.452Z,13.14
2018-04-25T03:07:14.372Z,13.13
2018-04-25T03:09:40.268Z,13.13
2018-04-25T03:12:06.122Z,13.10
2018-04-25T03:14:32.028Z,13.08
2018-04-25T03:16:58.019Z,13.07
2018-04-25T03:19:23.864Z,13.11
2018-04-25T03:21:49.737Z,13.13
2018-04-25T03:24:15.621Z,13.16
2018-04-25T03:26:41.558Z,13.19
2018-04-25T03:29:07.471Z,13.20
2018-04-25T03:31:33.381Z,13.14
2018-04-25T03:33:59.286Z,13.17
2018-04-25T03:36:25.175Z,13.19
2018-04-25T03:38:51.075Z,13.15
2018-04-25T03:41:16.933Z,13.20
2018-04-25T03:43:43.879Z,13.20
2018-04-25T03:46:09.754Z,13.26
2018-04-25T03:48:38.782Z,13.24
2018-04-25T03:51:11.419Z,12.94
2018-04-25T03:53:37.313Z,13.04
2018-04-25T03:56:03.276Z,13.01
2018-04-25T03:58:29.131Z,12.96
2018-04-25T04:00:55.052Z,12.94
2018-04-25T04:03:22.938Z,12.93
2018-04-25T04:05:48.809Z,12.92
2018-04-25T04:08:18.149Z,12.97
2018-04-25T04:10:44.044Z,12.96
2018-04-25T04:13:09.927Z,12.97
2018-04-25T04:15:35.809Z,12.99
2018-04-25T04:18:01.708Z,12.97
2018-04-25T04:20:28.947Z,12.96
2018-04-25T04:22:54.856Z,12.96
2018-04-25T04:25:23.691Z,13.00
2018-04-25T04:27:49.575Z,13.01
2018-04-25T04:30:19.356Z,13.03
2018-04-25T04:32:45.361Z,13.04
2018-04-25T04:35:14.383Z,12.94
2018-04-25T04:37:40.291Z,12.85
2018-04-25T04:40:08.052Z,12.82
2018-04-25T04:42:33.987Z,12.84
2018-04-25T04:45:02.872Z,12.84
2018-04-25T04:47:28.791Z,12.77
2018-04-25T04:49:54.710Z,12.86
2018-04-25T04:52:20.604Z,12.98
2018-04-25T04:54:46.470Z,13.03
2018-04-25T04:57:16.323Z,13.11
2018-04-25T04:59:42.297Z,13.25
2018-04-25T05:02:09.348Z,13.39
2018-04-25T05:04:35.229Z,13.48
2018-04-25T05:07:04.383Z,13.61
2018-04-25T05:09:30.268Z,13.63
2018-04-25T05:11:59.403Z,13.63
2018-04-25T05:14:25.290Z,13.69
2018-04-25T05:16:54.540Z,13.74
2018-04-25T05:19:20.406Z,13.86
2018-04-25T05:21:49.832Z,13.85
2018-04-25T05:24:15.774Z,13.93
2018-04-25T05:26:41.637Z,14.03
2018-04-25T05:29:07.479Z,14.11
2018-04-25T05:31:33.345Z,14.17
2018-04-25T05:36:51.968Z,14.36
2018-04-25T05:39:17.897Z,14.47
2018-04-25T05:41:43.789Z,14.57
2018-04-25T05:44:09.658Z,14.60
2018-04-25T05:46:35.568Z,14.68
2018-04-25T05:49:01.426Z,14.74
2018-04-25T05:51:27.344Z,14.81
2018-04-25T05:53:53.247Z,14.93
2018-04-25T05:56:19.135Z,15.12
2018-04-25T05:58:45.010Z,15.15
2018-04-25T06:01:10.875Z,15.27
2018-04-25T06:03:36.743Z,15.38
2018-04-25T06:06:02.641Z,15.51
2018-04-25T06:08:28.515Z,15.68
2018-04-25T06:10:54.444Z,15.73
2018-04-25T06:13:20.368Z,15.87
2018-04-25T06:15:46.286Z,15.96
2018-04-25T06:18:12.191Z,15.96
2018-04-25T06:20:38.073Z,16.11
2018-04-25T06:23:03.962Z,16.28
2018-04-25T06:25:29.841Z,16.43
2018-04-25T06:27:55.734Z,16.50
2018-04-25T06:30:25.095Z,16.44
2018-04-25T06:32:50.963Z,16.42
2018-04-25T06:35:20.477Z,16.49
2018-04-25T06:37:46.370Z,16.64
2018-04-25T06:40:12.267Z,16.79
2018-04-25T06:42:38.160Z,17.03
2018-04-25T06:45:04.086Z,17.37
2018-04-25T06:47:30.214Z,17.64
2018-04-25T06:49:56.162Z,17.84
2018-04-25T06:52:24.881Z,18.03
2018-04-25T06:54:50.767Z,18.28
2018-04-25T06:57:19.051Z,18.49
2018-04-25T06:59:44.938Z,18.76
2018-04-25T07:04:41.719Z,18.93
2018-04-25T07:07:10.902Z,19.03
2018-04-25T07:09:36.782Z,19.07
2018-04-25T07:12:04.116Z,19.27
2018-04-25T07:14:30.013Z,19.43
2018-04-25T07:16:55.897Z,19.51
2018-04-25T07:19:21.788Z,19.81
2018-04-25T07:21:47.662Z,19.92
2018-04-25T07:24:15.493Z,19.99
2018-04-25T07:26:41.531Z,20.35
2018-04-25T07:29:10.442Z,20.64
2018-04-25T07:31:36.339Z,20.75
2018-04-25T07:34:05.832Z,20.82
2018-04-25T07:36:31.724Z,20.71
2018-04-25T07:39:01.651Z,20.82
2018-04-25T07:41:27.586Z,20.89
2018-04-25T07:43:54.684Z,20.81
2018-04-25T07:46:20.595Z,20.55
2018-04-25T07:48:49.944Z,20.04
2018-04-25T07:51:15.832Z,19.84
2018-04-25T07:53:41.719Z,19.90
2018-04-25T07:56:07.644Z,19.96
2018-04-25T07:58:33.507Z,20.03
2018-04-25T08:01:01.429Z,20.14
2018-04-25T08:03:27.316Z,19.99
2018-04-25T08:05:56.623Z,19.74
2018-04-25T08:08:22.480Z,19.73
2018-04-25T08:10:51.896Z,19.62
2018-04-25T08:13:30.068Z,20.13
2018-04-25T08:16:08.381Z,20.38
2018-04-25T08:18:46.647Z,20.40
2018-04-25T08:21:18.587Z,20.54
2018-04-25T08:23:44.602Z,20.17
2018-04-25T08:26:10.449Z,19.95
2018-04-25T08:28:36.360Z,19.87
2018-04-25T08:31:02.281Z,19.78
2018-04-25T08:33:28.169Z,19.58
2018-04-25T08:35:54.083Z,19.74
2018-04-25T08:38:19.948Z,19.85
2018-04-25T08:40:45.843Z,20.05
2018-04-25T08:43:11.763Z,20.28
2018-04-25T08:45:37.701Z,20.38
2018-04-25T08:48:03.579Z,20.17
2018-04-25T08:50:29.473Z,20.17
2018-04-25T08:52:55.387Z,20.55
2018-04-25T08:55:22.130Z,20.62
2018-04-25T08:57:48.006Z,20.57
2018-04-25T09:00:13.925Z,20.62
2018-04-25T09:02:39.815Z,20.51
2018-04-25T09:05:05.846Z,20.54
2018-04-25T09:07:31.788Z,20.77
2018-04-25T09:09:57.670Z,21.04
2018-04-25T09:12:23.549Z,21.27
2018-04-25T09:14:49.477Z,21.56
2018-04-25T09:17:16.202Z,21.60
2018-04-25T09:19:42.139Z,21.67
2018-04-25T09:22:08.051Z,21.58
2018-04-25T09:24:34.024Z,21.72
2018-04-25T09:26:59.874Z,21.64
2018-04-25T09:29:25.742Z,21.62
2018-04-25T09:31:51.611Z,21.66
2018-04-25T09:34:17.483Z,21.37
2018-04-25T09:36:43.408Z,21.45
2018-04-25T09:39:09.284Z,21.89
2018-04-25T09:41:35.218Z,22.06
2018-04-25T09:44:01.122Z,21.30
2018-04-25T09:46:26.992Z,20.96
2018-04-25T09:48:52.888Z,20.90
2018-04-25T09:51:18.830Z,20.77
2018-04-25T09:53:44.754Z,20.92
2018-04-25T09:56:11.487Z,20.79
2018-04-25T09:58:37.393Z,21.00
2018-04-25T10:01:06.526Z,20.96
2018-04-25T10:03:32.465Z,21.04
2018-04-25T10:06:02.027Z,21.07
2018-04-25T10:08:27.954Z,20.87
2018-04-25T10:10:57.262Z,21.11
2018-04-25T10:13:23.677Z,21.08
2018-04-25T10:15:51.583Z,20.57
2018-04-25T10:18:17.497Z,20.37
2018-04-25T10:20:43.390Z,20.11
2018-04-25T10:23:09.306Z,20.21
2018-04-25T10:25:35.275Z,20.46
2018-04-25T10:28:02.215Z,20.55
2018-04-25T10:30:28.146Z,20.49
2018-04-25T10:32:57.370Z,20.15
2018-04-25T10:35:23.325Z,20.14
2018-04-25T10:37:52.717Z,20.16
2018-04-25T10:40:18.635Z,20.24
2018-04-25T10:42:47.912Z,20.13
2018-04-25T10:45:13.845Z,19.95
2018-04-25T10:47:40.956Z,19.85
2018-04-25T10:50:06.892Z,20.06
2018-04-25T10:52:36.097Z,20.10
2018-04-25T10:55:01.971Z,20.79
2018-04-25T10:57:27.861Z,21.06
2018-04-25T10:59:53.751Z,21.64
2018-04-25T11:02:19.700Z,21.96
2018-04-25T11:04:47.773Z,22.16
2018-04-25T11:07:13.676Z,21.96
2018-04-25T11:09:42.616Z,21.92
2018-04-25T11:12:08.695Z,21.88
2018-04-25T11:14:37.599Z,21.86
2018-04-25T11:17:03.497Z,22.13
2018-04-25T11:19:32.656Z,21.67
2018-04-25T11:21:58.564Z,21.98
2018-04-25T11:24:27.921Z,22.49
2018-04-25T11:26:53.812Z,22.81
2018-04-25T11:29:22.884Z,22.39
2018-04-25T11:31:48.869Z,21.39
2018-04-25T11:34:14.687Z,20.94
2018-04-25T11:36:40.578Z,21.09
2018-04-25T11:39:06.453Z,21.45
2018-04-25T11:41:32.651Z,21.67
2018-04-25T11:43:58.552Z,21.83
2018-04-25T11:46:29.133Z,21.81
2018-04-25T11:48:56.271Z,21.62
2018-04-25T11:51:22.293Z,21.68
2018-04-25T11:53:48.222Z,21.65
2018-04-25T11:56:18.055Z,21.39
2018-04-25T11:58:43.927Z,21.36
2018-04-25T12:01:13.316Z,21.59
2018-04-25T12:03:39.245Z,21.56
2018-04-25T12:06:06.560Z,21.02
2018-04-25T12:08:32.485Z,20.79
2018-04-25T12:10:58.380Z,20.60
2018-04-25T12:13:24.308Z,20.63
2018-04-25T12:15:50.194Z,20.55
2018-04-25T12:18:18.027Z,20.36
2018-04-25T12:20:43.909Z,20.32
2018-04-25T12:23:12.730Z,20.23
2018-04-25T12:25:38.641Z,20.08
2018-04-25T12:28:07.571Z,20.12
2018-04-25T12:30:33.482Z,20.07
2018-04-25T12:33:02.482Z,20.28
2018-04-25T12:35:28.364Z,20.59
2018-04-25T12:37:57.039Z,20.81
2018-04-25T12:40:22.937Z,20.76
2018-04-25T12:42:52.269Z,20.74
2018-04-25T12:45:18.180Z,20.55
2018-04-25T12:47:44.083Z,20.52
2018-04-25T12:50:09.976Z,20.60
2018-04-25T12:52:35.879Z,20.52
2018-04-25T12:55:03.486Z,20.61
2018-04-25T12:57:29.386Z,20.62
2018-04-25T12:59:58.600Z,20.35
2018-04-25T13:02:24.499Z,20.29
2018-04-25T13:04:53.117Z,20.23
2018-04-25T13:07:19.075Z,20.17
2018-04-25T13:09:48.361Z,19.98
2018-04-25T13:12:14.232Z,19.76
2018-04-25T13:14:44.836Z,19.74
2018-04-25T13:17:10.830Z,19.53
2018-04-25T13:19:36.827Z,19.28
2018-04-25T13:22:02.696Z,19.26
2018-04-25T13:24:28.644Z,19.44
2018-04-25T13:26:54.569Z,19.56
2018-04-25T13:29:20.467Z,19.35
2018-04-25T13:31:49.409Z,19.13
2018-04-25T13:34:15.311Z,19.05
2018-04-25T13:36:44.415Z,18.84
2018-04-25T13:39:10.320Z,18.77
2018-04-25T13:41:39.077Z,18.82
2018-04-25T13:44:05.760Z,18.79
2018-04-25T13:46:33.375Z,18.81
2018-04-25T13:48:59.253Z,18.72
2018-04-25T13:51:28.556Z,18.62
2018-04-25T13:53:54.467Z,18.54
2018-04-25T13:56:23.440Z,18.54
2018-04-25T13:58:49.311Z,18.56
2018-04-25T14:01:15.247Z,18.62
2018-04-25T14:03:41.265Z,18.68
2018-04-25T14:06:07.238Z,18.72
2018-04-25T14:08:33.883Z,18.80
2018-04-25T14:10:59.844Z,18.69
2018-04-25T14:13:29.499Z,18.68
2018-04-25T14:15:55.368Z,18.68
2018-04-25T14:18:24.931Z,18.57
2018-04-25T14:20:50.844Z,18.59
2018-04-25T14:23:20.157Z,18.65
2018-04-25T14:25:46.071Z,18.93
2018-04-25T14:28:12.875Z,18.94
2018-04-25T14:30:38.766Z,18.95
2018-04-25T14:33:07.639Z,19.07
2018-04-25T14:35:33.522Z,19.14
2018-04-25T14:37:59.374Z,19.23
2018-04-25T14:40:25.288Z,19.37
2018-04-25T14:42:51.144Z,19.61
2018-04-25T14:45:20.375Z,19.83
2018-04-25T14:47:46.283Z,19.96
2018-04-25T14:50:14.019Z,19.95
2018-04-25T14:52:39.924Z,20.01
2018-04-25T14:55:08.943Z,19.98
2018-04-25T14:57:34.848Z,19.83
2018-04-25T15:00:04.083Z,19.79
2018-04-25T15:02:30.055Z,19.66
2018-04-25T15:04:59.554Z,19.55
2018-04-25T15:07:25.464Z,19.41
2018-04-25T15:09:52.921Z,19.41
2018-04-25T15:12:18.796Z,19.20
2018-04-25T15:14:45.740Z,18.92
2018-04-25T15:17:11.725Z,18.81
2018-04-25T15:19:37.622Z,18.84
2018-04-25T15:22:04.299Z,19.03
2018-04-25T15:24:30.207Z,18.99
2018-04-25T15:26:59.041Z,18.91
2018-04-25T15:29:24.938Z,18.98
2018-04-25T15:31:53.774Z,19.08
2018-04-25T15:34:19.689Z,19.22
2018-04-25T15:36:48.474Z,19.43
2018-04-25T15:39:14.374Z,19.79
2018-04-25T15:41:43.576Z,19.96
2018-04-25T15:44:10.232Z,20.58
2018-04-25T15:46:39.487Z,20.45
2018-04-25T15:49:05.526Z,20.70
2018-04-25T15:51:31.414Z,21.16
2018-04-25T15:53:57.299Z,21.62
2018-04-25T15:56:23.191Z,21.86
2018-04-25T15:58:50.000Z,22.18
2018-04-25T16:01:15.872Z,22.36
2018-04-25T16:03:45.361Z,22.49
2018-04-25T16:06:11.287Z,22.95
2018-04-25T16:08:40.360Z,23.17
2018-04-25T16:11:06.326Z,23.52
2018-04-25T16:13:34.147Z,23.26
2018-04-25T16:16:00.039Z,23.36
2018-04-25T16:18:29.655Z,23.50
2018-04-25T16:20:55.580Z,23.22
2018-04-25T16:23:24.972Z,22.85
2018-04-25T16:25:50.911Z,22.43
2018-04-25T16:28:33.149Z,22.46
2018-04-25T16:30:59.096Z,22.64
2018-04-25T16:33:24.996Z,23.14
2018-04-25T16:35:50.878Z,23.15
2018-04-25T16:38:16.795Z,22.73
2018-04-25T16:40:42.659Z,22.06
2018-04-25T16:43:08.564Z,21.32
2018-04-25T16:45:34.464Z,20.56
2018-04-25T16:48:00.361Z,20.39
2018-04-25T16:50:26.263Z,20.11
2018-04-25T16:52:52.166Z,20.14
2018-04-25T16:55:18.127Z,20.08
2018-04-25T16:57:43.990Z,19.75
2018-04-25T17:00:09.895Z,19.39
2018-04-25T17:02:35.781Z,19.53
2018-04-25T17:05:01.695Z,19.55
2018-04-25T17:07:27.617Z,19.34
2018-04-25T17:09:53.491Z,19.14
2018-04-25T17:12:20.243Z,18.84
2018-04-25T17:14:46.842Z,18.55
2018-04-25T17:17:16.722Z,18.17
2018-04-25T17:19:42.638Z,17.94
2018-04-25T17:22:09.975Z,17.83
2018-04-25T17:24:35.892Z,17.73
2018-04-25T17:27:05.509Z,17.74
2018-04-25T17:29:31.419Z,17.74
2018-04-25T17:32:00.788Z,17.68
2018-04-25T17:34:26.670Z,17.59
2018-04-25T17:36:54.145Z,17.58
2018-04-25T17:39:19.935Z,17.48
2018-04-25T17:41:45.813Z,17.44
2018-04-25T17:44:11.700Z,17.41
2018-04-25T17:46:37.623Z,17.35
2018-04-25T17:49:06.717Z,17.25
2018-04-25T17:51:32.604Z,17.17
2018-04-25T17:54:00.339Z,17.14
2018-04-25T17:56:26.251Z,17.06
2018-04-25T17:58:55.075Z,17.02
2018-04-25T18:01:20.982Z,16.89
2018-04-25T18:03:50.059Z,16.78
2018-04-25T18:06:15.972Z,16.67
2018-04-25T18:08:46.077Z,16.58
2018-04-25T18:11:12.088Z,16.52
2018-04-25T18:13:41.065Z,16.49
2018-04-25T18:16:06.943Z,16.34
2018-04-25T18:18:32.807Z,16.28
2018-04-25T18:20:58.704Z,16.30
2018-04-25T18:23:24.611Z,16.28
2018-04-25T18:25:50.939Z,16.28
2018-04-25T18:28:16.843Z,16.25
2018-04-25T18:30:45.678Z,16.16
2018-04-25T18:33:11.612Z,16.12
2018-04-25T18:35:40.561Z,16.12
2018-04-25T18:38:06.487Z,16.10
2018-04-25T18:40:35.784Z,16.03
2018-04-25T18:43:01.650Z,15.96
2018-04-25T18:45:30.919Z,15.83
2018-04-25T18:47:56.841Z,15.79
2018-04-25T18:50:26.395Z,15.84
2018-04-25T18:52:52.297Z,15.85
2018-04-25T18:55:18.197Z,15.84
2018-04-25T18:57:44.374Z,15.71
2018-04-25T19:00:10.346Z,15.56
2018-04-25T19:02:36.302Z,15.55
2018-04-25T19:05:02.193Z,15.51
2018-04-25T19:07:31.150Z,15.45
2018-04-25T19:09:57.325Z,15.45
2018-04-25T19:12:26.790Z,15.40
2018-04-25T19:14:52.993Z,15.31
2018-04-25T19:17:22.191Z,15.37
2018-04-25T19:19:48.074Z,15.39
2018-04-25T19:22:15.841Z,15.31
2018-04-25T19:24:42.016Z,15.28
2018-04-25T19:27:10.222Z,15.22
2018-04-25T19:29:36.243Z,15.25
2018-04-25T19:32:02.159Z,15.28
2018-04-25T19:34:28.052Z,15.37
2018-04-25T19:36:54.044Z,15.41
2018-04-25T19:39:21.736Z,15.33
2018-04-25T19:41:47.587Z,15.32
2018-04-25T19:44:17.286Z,15.36
2018-04-25T19:46:43.182Z,15.27
2018-04-25T19:49:12.590Z,15.25
2018-04-25T19:51:38.472Z,15.25
2018-04-25T19:54:05.863Z,15.13
2018-04-25T19:59:03.387Z,15.01
2018-04-25T20:01:29.279Z,15.08
2018-04-25T20:03:55.162Z,15.05
2018-04-25T20:06:21.036Z,15.03
2018-04-25T20:08:47.039Z,14.85
2018-04-25T20:11:13.004Z,14.84
2018-04-25T20:13:39.181Z,14.86
2018-04-25T20:16:07.430Z,14.79
2018-04-25T20:18:33.633Z,14.70
2018-04-25T20:21:03.983Z,14.61
2018-04-25T20:23:30.150Z,14.50
2018-04-25T20:25:56.768Z,14.54
2018-04-25T20:28:22.679Z,14.48
2018-04-25T20:30:52.127Z,14.47
2018-04-25T20:33:18.060Z,14.42
2018-04-25T20:35:47.470Z,14.36
2018-04-25T20:38:13.359Z,14.34
2018-04-25T20:40:41.160Z,14.33
2018-04-25T20:43:07.232Z,14.31
2018-04-25T20:45:33.106Z,14.30
2018-04-25T20:47:58.991Z,14.25
2018-04-25T20:50:24.856Z,14.27
2018-04-25T20:52:52.041Z,14.30
2018-04-25T20:55:17.901Z,14.35
2018-04-25T20:57:46.651Z,14.30
2018-04-25T21:00:12.549Z,14.25
2018-04-25T21:02:41.350Z,14.13
2018-04-25T21:05:07.311Z,14.16
2018-04-25T21:07:36.047Z,14.03
2018-04-25T21:10:01.975Z,14.01
2018-04-25T21:12:30.947Z,13.94
2018-04-25T21:14:56.873Z,13.91
2018-04-25T21:17:26.658Z,13.99
2018-04-25T21:19:52.601Z,13.96
2018-04-25T21:22:18.500Z,13.90
2018-04-25T21:24:44.451Z,13.95
2018-04-25T21:27:10.357Z,13.91
2018-04-25T21:29:37.420Z,13.98
2018-04-25T21:32:03.321Z,13.83
2018-04-25T21:34:32.717Z,13.79
2018-04-25T21:36:58.623Z,13.87
2018-04-25T21:39:28.464Z,13.77
2018-04-25T21:41:54.345Z,13.63
2018-04-25T21:44:21.720Z,13.55
2018-04-25T21:46:47.632Z,13.49
2018-04-25T21:49:17.432Z,13.41
2018-04-25T21:51:44.327Z,13.31
2018-04-25T21:54:11.296Z,13.18
2018-04-25T21:56:37.175Z,13.01
2018-04-25T21:59:03.097Z,12.90
2018-04-25T22:01:28.978Z,12.77
2018-04-25T22:03:54.895Z,12.76
2018-04-25T22:06:24.421Z,12.79
2018-04-25T22:08:50.324Z,12.84
2018-04-25T22:11:17.503Z,12.90
2018-04-25T22:13:43.415Z,12.87
2018-04-25T22:16:12.927Z,12.67
2018-04-25T22:18:38.958Z,12.41
2018-04-25T22:21:08.361Z,12.30
2018-04-25T22:23:34.260Z,12.16
2018-04-25T22:26:01.690Z,12.13
2018-04-25T22:28:27.595Z,12.10
2018-04-25T22:30:57.496Z,12.05
2018-04-25T22:33:23.429Z,11.99
2018-04-25T22:35:49.329Z,11.81
2018-04-25T22:38:15.187Z,11.87
2018-04-25T22:40:41.135Z,11.85
2018-04-25T22:43:08.595Z,11.89
2018-04-25T22:45:34.499Z,11.86
2018-04-25T22:48:03.542Z,11.83
2018-04-25T22:50:29.479Z,11.75
2018-04-25T22:52:57.730Z,11.76
2018-04-25T22:55:23.598Z,11.75
2018-04-25T22:57:52.969Z,11.72
2018-04-25T23:00:18.908Z,11.64
2018-04-25T23:02:48.166Z,11.67
2018-04-25T23:05:14.105Z,11.61
2018-04-25T23:07:43.259Z,11.57
2018-04-25T23:10:09.275Z,11.55
2018-04-25T23:12:35.214Z,11.66
2018-04-25T23:15:01.290Z,11.69
2018-04-25T23:17:27.199Z,11.64
2018-04-25T23:19:53.917Z,11.68
2018-04-25T23:22:19.782Z,11.74
2018-04-25T23:24:48.903Z,11.75
2018-04-25T23:27:14.807Z,11.73
2018-04-25T23:29:44.588Z,11.73
2018-04-25T23:32:10.484Z,11.70
2018-04-25T23:34:37.687Z,11.63
2018-04-25T23:37:03.599Z,11.62
2018-04-25T23:39:32.908Z,11.61
2018-04-25T23:41:58.806Z,11.64
2018-04-25T23:44:26.989Z,11.64
2018-04-25T23:46:52.879Z,11.65
2018-04-25T23:49:18.776Z,11.63
2018-04-25T23:51:44.642Z,11.66
2018-04-25T23:54:10.572Z,11.66
2018-04-25T23:56:40.210Z,11.69
2018-04-25T23:59:06.090Z,11.61
